Skip Navigation Links Skip Navigation Links

Current Weather

Karaganda, Kazakhstan

For information only: do not use for flight planning or navigation.
Latest weather
Observation time Monday, December 16, 2019 2:30 PM +06
Local time Monday, December 16, 2019 3:01 PM +06
Flight conditions Instrument Meteorological Conditions
Winds
Wind speed calm
Visibility 1.9 mi.
Present weather ice crystals, mist
Sky condition
Ceiling unlimited
Cloud layer scattered clouds 400 ft.
Temperature 3°F
Dewpoint 0°F
Altimeter 30.56 in.Hg
Precipitation
QB 4:20 PM
QF 2:08 AM
Derived measurements
Relative humidity 84%
Wind chill 3°F
Density altitude -4651 ft.
Remarks
No significant changes expected in the next two hours.
METAR UAKK 160830Z 00000MPS 3000 IC BR SCT004 M16/M18 Q1035 R05/820550 NOSIG RMK QBB140 QFE728/0971

Settings

Location code

InnerDrive.Weather 4.0.6770.0 Release CLR 4.0.30319.42000
Copyright ©2018 Inner Drive Technology. All rights reserved. Portions Copyright ©1986-2018 David Braverman.

Find weather

Site navigation


Skip Navigation Links

Place info

Page info

PayPal - The safer, easier way to pay online!

Return home.

Copyright ©2019 Inner Drive Technology. Purveyors of fine, hand-crafted computer software. Page printed 2019-12-16T09:01:55 UTC.